sensor_id;sensor_type;location;lat;lon;timestamp;temperature;humidity
33105;DHT22;19476;51.448;6.674;2023-11-18T00:00:32;11.10;54.60
33105;DHT22;19476;51.448;6.674;2023-11-18T00:02:58;11.10;54.90
33105;DHT22;19476;51.448;6.674;2023-11-18T00:05:24;11.10;55.10
33105;DHT22;19476;51.448;6.674;2023-11-18T00:07:50;11.10;55.30
33105;DHT22;19476;51.448;6.674;2023-11-18T00:10:16;11.10;55.40
33105;DHT22;19476;51.448;6.674;2023-11-18T00:12:42;11.10;55.50
33105;DHT22;19476;51.448;6.674;2023-11-18T00:15:08;11.10;55.60
33105;DHT22;19476;51.448;6.674;2023-11-18T00:17:36;11.10;55.70
33105;DHT22;19476;51.448;6.674;2023-11-18T00:20:01;11.10;55.70
33105;DHT22;19476;51.448;6.674;2023-11-18T00:22:28;11.10;55.70
33105;DHT22;19476;51.448;6.674;2023-11-18T00:24:54;11.20;55.70
33105;DHT22;19476;51.448;6.674;2023-11-18T00:27:20;11.20;55.60
33105;DHT22;19476;51.448;6.674;2023-11-18T00:29:50;11.20;55.60
33105;DHT22;19476;51.448;6.674;2023-11-18T00:32:16;11.20;55.60
33105;DHT22;19476;51.448;6.674;2023-11-18T00:34:42;11.20;55.60
33105;DHT22;19476;51.448;6.674;2023-11-18T00:37:08;11.20;55.70
33105;DHT22;19476;51.448;6.674;2023-11-18T00:39:35;11.20;55.80
33105;DHT22;19476;51.448;6.674;2023-11-18T00:42:00;11.20;55.80
33105;DHT22;19476;51.448;6.674;2023-11-18T00:44:26;11.30;55.80
33105;DHT22;19476;51.448;6.674;2023-11-18T00:46:52;11.30;55.80
33105;DHT22;19476;51.448;6.674;2023-11-18T00:49:17;11.30;55.90
33105;DHT22;19476;51.448;6.674;2023-11-18T00:51:43;11.30;55.90
33105;DHT22;19476;51.448;6.674;2023-11-18T00:54:09;11.40;55.90
33105;DHT22;19476;51.448;6.674;2023-11-18T00:56:35;11.40;55.80
33105;DHT22;19476;51.448;6.674;2023-11-18T00:59:01;11.40;55.80
33105;DHT22;19476;51.448;6.674;2023-11-18T01:01:27;11.40;55.80
33105;DHT22;19476;51.448;6.674;2023-11-18T01:03:53;11.50;56.40
33105;DHT22;19476;51.448;6.674;2023-11-18T01:06:19;11.50;55.80
33105;DHT22;19476;51.448;6.674;2023-11-18T01:08:45;11.50;55.80
33105;DHT22;19476;51.448;6.674;2023-11-18T01:11:16;11.50;56.00
33105;DHT22;19476;51.448;6.674;2023-11-18T01:13:46;11.50;56.20
33105;DHT22;19476;51.448;6.674;2023-11-18T01:16:12;11.50;56.10
33105;DHT22;19476;51.448;6.674;2023-11-18T01:18:41;11.50;56.10
33105;DHT22;19476;51.448;6.674;2023-11-18T01:21:07;11.50;56.20
33105;DHT22;19476;51.448;6.674;2023-11-18T01:23:36;11.60;56.20
33105;DHT22;19476;51.448;6.674;2023-11-18T01:26:03;11.60;56.10
33105;DHT22;19476;51.448;6.674;2023-11-18T01:28:33;11.60;56.20
33105;DHT22;19476;51.448;6.674;2023-11-18T01:31:03;11.60;56.20
33105;DHT22;19476;51.448;6.674;2023-11-18T01:33:29;11.60;56.10
33105;DHT22;19476;51.448;6.674;2023-11-18T01:35:55;11.60;56.10
33105;DHT22;19476;51.448;6.674;2023-11-18T01:38:21;11.70;56.00
33105;DHT22;19476;51.448;6.674;2023-11-18T01:40:47;11.70;56.00
33105;DHT22;19476;51.448;6.674;2023-11-18T01:43:12;11.70;56.00
33105;DHT22;19476;51.448;6.674;2023-11-18T01:45:40;11.70;56.00
33105;DHT22;19476;51.448;6.674;2023-11-18T01:48:08;11.70;56.00
33105;DHT22;19476;51.448;6.674;2023-11-18T01:50:38;11.70;56.00
33105;DHT22;19476;51.448;6.674;2023-11-18T01:53:05;11.80;56.10
33105;DHT22;19476;51.448;6.674;2023-11-18T01:55:33;11.70;56.00
33105;DHT22;19476;51.448;6.674;2023-11-18T01:58:00;11.80;56.10
33105;DHT22;19476;51.448;6.674;2023-11-18T02:00:36;11.80;56.10
33105;DHT22;19476;51.448;6.674;2023-11-18T02:03:05;11.80;56.00
33105;DHT22;19476;51.448;6.674;2023-11-18T02:05:31;11.90;55.90
33105;DHT22;19476;51.448;6.674;2023-11-18T02:08:01;11.90;55.90
33105;DHT22;19476;51.448;6.674;2023-11-18T02:10:48;11.90;55.90
33105;DHT22;19476;51.448;6.674;2023-11-18T02:13:24;11.80;55.80
33105;DHT22;19476;51.448;6.674;2023-11-18T02:15:58;11.80;55.90
33105;DHT22;19476;51.448;6.674;2023-11-18T02:18:26;11.80;55.90
33105;DHT22;19476;51.448;6.674;2023-11-18T02:20:56;11.80;55.90
33105;DHT22;19476;51.448;6.674;2023-11-18T02:23:26;11.80;55.90
33105;DHT22;19476;51.448;6.674;2023-11-18T02:25:52;11.80;55.80
33105;DHT22;19476;51.448;6.674;2023-11-18T02:28:19;11.80;55.80
33105;DHT22;19476;51.448;6.674;2023-11-18T02:30:50;11.80;55.90
33105;DHT22;19476;51.448;6.674;2023-11-18T02:33:28;11.70;55.90
33105;DHT22;19476;51.448;6.674;2023-11-18T02:36:31;11.70;56.20
33105;DHT22;19476;51.448;6.674;2023-11-18T02:39:04;11.70;56.40
33105;DHT22;19476;51.448;6.674;2023-11-18T02:41:37;11.70;56.20
33105;DHT22;19476;51.448;6.674;2023-11-18T02:44:04;11.60;56.20
33105;DHT22;19476;51.448;6.674;2023-11-18T02:46:36;11.60;56.20
33105;DHT22;19476;51.448;6.674;2023-11-18T02:49:03;11.60;56.30
33105;DHT22;19476;51.448;6.674;2023-11-18T02:51:28;11.60;56.40
33105;DHT22;19476;51.448;6.674;2023-11-18T02:53:57;11.60;56.40
33105;DHT22;19476;51.448;6.674;2023-11-18T02:56:23;11.60;56.50
33105;DHT22;19476;51.448;6.674;2023-11-18T02:58:49;11.50;56.40
33105;DHT22;19476;51.448;6.674;2023-11-18T03:01:14;11.50;56.60
33105;DHT22;19476;51.448;6.674;2023-11-18T03:03:40;11.50;56.70
33105;DHT22;19476;51.448;6.674;2023-11-18T03:06:07;11.50;56.70
33105;DHT22;19476;51.448;6.674;2023-11-18T03:08:34;11.60;56.80
33105;DHT22;19476;51.448;6.674;2023-11-18T03:10:59;11.50;56.70
33105;DHT22;19476;51.448;6.674;2023-11-18T03:13:25;11.60;56.70
33105;DHT22;19476;51.448;6.674;2023-11-18T03:15:51;11.60;56.70
33105;DHT22;19476;51.448;6.674;2023-11-18T03:18:17;11.60;56.60
33105;DHT22;19476;51.448;6.674;2023-11-18T03:20:43;11.60;56.60
33105;DHT22;19476;51.448;6.674;2023-11-18T03:23:08;11.50;56.60
33105;DHT22;19476;51.448;6.674;2023-11-18T03:25:35;11.60;56.60
33105;DHT22;19476;51.448;6.674;2023-11-18T03:28:01;11.60;56.70
33105;DHT22;19476;51.448;6.674;2023-11-18T03:30:26;11.50;56.60
33105;DHT22;19476;51.448;6.674;2023-11-18T03:32:54;11.50;56.60
33105;DHT22;19476;51.448;6.674;2023-11-18T03:35:20;11.50;56.70
33105;DHT22;19476;51.448;6.674;2023-11-18T03:37:46;11.50;56.90
33105;DHT22;19476;51.448;6.674;2023-11-18T03:40:13;11.50;56.90
33105;DHT22;19476;51.448;6.674;2023-11-18T03:42:43;11.50;57.70
33105;DHT22;19476;51.448;6.674;2023-11-18T03:45:12;11.50;57.20
33105;DHT22;19476;51.448;6.674;2023-11-18T03:47:40;11.50;57.10
33105;DHT22;19476;51.448;6.674;2023-11-18T03:50:06;11.50;57.20
33105;DHT22;19476;51.448;6.674;2023-11-18T03:52:35;11.60;57.20
33105;DHT22;19476;51.448;6.674;2023-11-18T03:55:03;11.60;57.30
33105;DHT22;19476;51.448;6.674;2023-11-18T03:57:28;11.60;57.30
33105;DHT22;19476;51.448;6.674;2023-11-18T03:59:54;11.70;57.20
33105;DHT22;19476;51.448;6.674;2023-11-18T04:02:20;11.60;57.10
33105;DHT22;19476;51.448;6.674;2023-11-18T04:04:46;11.70;57.00
33105;DHT22;19476;51.448;6.674;2023-11-18T04:07:11;11.70;57.00
33105;DHT22;19476;51.448;6.674;2023-11-18T04:09:37;11.60;56.90
33105;DHT22;19476;51.448;6.674;2023-11-18T04:12:03;11.60;56.80
33105;DHT22;19476;51.448;6.674;2023-11-18T04:14:30;11.60;56.90
33105;DHT22;19476;51.448;6.674;2023-11-18T04:16:57;11.50;56.90
33105;DHT22;19476;51.448;6.674;2023-11-18T04:19:23;11.50;56.90
33105;DHT22;19476;51.448;6.674;2023-11-18T04:21:49;11.50;57.00
33105;DHT22;19476;51.448;6.674;2023-11-18T04:24:15;11.40;56.90
33105;DHT22;19476;51.448;6.674;2023-11-18T04:26:41;11.40;57.00
33105;DHT22;19476;51.448;6.674;2023-11-18T04:29:07;11.40;57.00
33105;DHT22;19476;51.448;6.674;2023-11-18T04:31:34;11.30;57.10
33105;DHT22;19476;51.448;6.674;2023-11-18T04:34:01;11.30;57.20
33105;DHT22;19476;51.448;6.674;2023-11-18T04:36:27;11.30;57.20
33105;DHT22;19476;51.448;6.674;2023-11-18T04:38:53;11.30;57.30
33105;DHT22;19476;51.448;6.674;2023-11-18T04:41:19;11.20;57.30
33105;DHT22;19476;51.448;6.674;2023-11-18T04:43:44;11.20;57.40
33105;DHT22;19476;51.448;6.674;2023-11-18T04:46:11;11.20;57.40
33105;DHT22;19476;51.448;6.674;2023-11-18T04:48:37;11.20;57.40
33105;DHT22;19476;51.448;6.674;2023-11-18T04:51:03;11.10;57.40
33105;DHT22;19476;51.448;6.674;2023-11-18T04:53:28;11.10;57.40
33105;DHT22;19476;51.448;6.674;2023-11-18T04:55:54;11.10;57.40
33105;DHT22;19476;51.448;6.674;2023-11-18T04:58:21;11.10;57.40
33105;DHT22;19476;51.448;6.674;2023-11-18T05:00:46;11.10;57.50
33105;DHT22;19476;51.448;6.674;2023-11-18T05:03:13;11.10;57.50
33105;DHT22;19476;51.448;6.674;2023-11-18T05:05:42;11.10;57.50
33105;DHT22;19476;51.448;6.674;2023-11-18T05:08:18;11.10;57.60
33105;DHT22;19476;51.448;6.674;2023-11-18T05:10:49;11.10;57.80
33105;DHT22;19476;51.448;6.674;2023-11-18T05:13:16;11.10;57.70
33105;DHT22;19476;51.448;6.674;2023-11-18T05:15:46;11.00;57.50
33105;DHT22;19476;51.448;6.674;2023-11-18T05:18:15;11.00;57.60
33105;DHT22;19476;51.448;6.674;2023-11-18T05:20:44;11.00;57.50
33105;DHT22;19476;51.448;6.674;2023-11-18T05:23:11;11.00;57.60
33105;DHT22;19476;51.448;6.674;2023-11-18T05:25:39;11.00;57.50
33105;DHT22;19476;51.448;6.674;2023-11-18T05:28:05;11.00;57.70
33105;DHT22;19476;51.448;6.674;2023-11-18T05:30:36;11.00;57.60
33105;DHT22;19476;51.448;6.674;2023-11-18T05:33:03;11.00;57.80
33105;DHT22;19476;51.448;6.674;2023-11-18T05:35:32;11.00;57.80
33105;DHT22;19476;51.448;6.674;2023-11-18T05:37:58;11.00;58.10
33105;DHT22;19476;51.448;6.674;2023-11-18T05:40:25;11.00;57.70
33105;DHT22;19476;51.448;6.674;2023-11-18T05:42:52;10.90;57.80
33105;DHT22;19476;51.448;6.674;2023-11-18T05:45:20;10.90;57.90
33105;DHT22;19476;51.448;6.674;2023-11-18T05:47:57;10.90;58.00
33105;DHT22;19476;51.448;6.674;2023-11-18T05:50:24;10.90;57.90
33105;DHT22;19476;51.448;6.674;2023-11-18T05:52:53;11.00;58.10
33105;DHT22;19476;51.448;6.674;2023-11-18T05:55:20;11.00;58.10
33105;DHT22;19476;51.448;6.674;2023-11-18T05:57:46;11.00;58.00
33105;DHT22;19476;51.448;6.674;2023-11-18T06:00:13;11.00;58.20
33105;DHT22;19476;51.448;6.674;2023-11-18T06:02:41;11.00;58.20
33105;DHT22;19476;51.448;6.674;2023-11-18T06:05:08;11.10;58.70
33105;DHT22;19476;51.448;6.674;2023-11-18T06:07:34;11.10;58.10
33105;DHT22;19476;51.448;6.674;2023-11-18T06:10:00;11.10;57.90
33105;DHT22;19476;51.448;6.674;2023-11-18T06:12:27;11.10;57.90
33105;DHT22;19476;51.448;6.674;2023-11-18T06:14:53;11.10;57.90
33105;DHT22;19476;51.448;6.674;2023-11-18T06:17:18;11.10;57.90
33105;DHT22;19476;51.448;6.674;2023-11-18T06:19:44;11.10;57.90
33105;DHT22;19476;51.448;6.674;2023-11-18T06:22:10;11.10;57.90
33105;DHT22;19476;51.448;6.674;2023-11-18T06:24:36;11.10;57.90
33105;DHT22;19476;51.448;6.674;2023-11-18T06:27:04;11.10;57.90
33105;DHT22;19476;51.448;6.674;2023-11-18T06:29:32;11.10;58.00
33105;DHT22;19476;51.448;6.674;2023-11-18T06:31:58;11.00;58.00
33105;DHT22;19476;51.448;6.674;2023-11-18T06:34:24;11.00;58.10
33105;DHT22;19476;51.448;6.674;2023-11-18T06:36:51;11.00;58.20
33105;DHT22;19476;51.448;6.674;2023-11-18T06:39:17;11.00;58.30
33105;DHT22;19476;51.448;6.674;2023-11-18T06:41:45;11.00;58.40
33105;DHT22;19476;51.448;6.674;2023-11-18T06:44:16;11.00;58.40
33105;DHT22;19476;51.448;6.674;2023-11-18T06:46:49;11.00;58.40
33105;DHT22;19476;51.448;6.674;2023-11-18T06:49:16;11.00;58.50
33105;DHT22;19476;51.448;6.674;2023-11-18T06:51:42;11.00;58.50
33105;DHT22;19476;51.448;6.674;2023-11-18T06:54:08;10.90;58.50
33105;DHT22;19476;51.448;6.674;2023-11-18T06:56:36;10.90;58.60
33105;DHT22;19476;51.448;6.674;2023-11-18T06:59:04;10.90;58.80
33105;DHT22;19476;51.448;6.674;2023-11-18T07:01:30;10.90;58.90
33105;DHT22;19476;51.448;6.674;2023-11-18T07:03:56;11.00;59.00
33105;DHT22;19476;51.448;6.674;2023-11-18T07:06:22;11.00;59.00
33105;DHT22;19476;51.448;6.674;2023-11-18T07:08:51;11.00;59.00
33105;DHT22;19476;51.448;6.674;2023-11-18T07:11:18;11.00;59.20
33105;DHT22;19476;51.448;6.674;2023-11-18T07:13:45;11.10;59.20
33105;DHT22;19476;51.448;6.674;2023-11-18T07:16:11;11.10;59.20
33105;DHT22;19476;51.448;6.674;2023-11-18T07:18:38;11.10;59.10
33105;DHT22;19476;51.448;6.674;2023-11-18T07:21:04;11.20;59.10
33105;DHT22;19476;51.448;6.674;2023-11-18T07:23:33;11.20;59.00
33105;DHT22;19476;51.448;6.674;2023-11-18T07:26:00;11.30;59.00
33105;DHT22;19476;51.448;6.674;2023-11-18T07:28:26;11.30;58.90
33105;DHT22;19476;51.448;6.674;2023-11-18T07:30:53;11.30;58.80
33105;DHT22;19476;51.448;6.674;2023-11-18T07:33:19;11.30;58.80
33105;DHT22;19476;51.448;6.674;2023-11-18T07:35:47;11.30;58.80
33105;DHT22;19476;51.448;6.674;2023-11-18T07:38:13;11.40;58.80
33105;DHT22;19476;51.448;6.674;2023-11-18T07:40:40;11.40;58.80
33105;DHT22;19476;51.448;6.674;2023-11-18T07:43:20;11.40;58.80
33105;DHT22;19476;51.448;6.674;2023-11-18T07:45:47;11.40;58.90
33105;DHT22;19476;51.448;6.674;2023-11-18T07:48:16;11.40;58.70
33105;DHT22;19476;51.448;6.674;2023-11-18T07:50:43;11.40;58.80
33105;DHT22;19476;51.448;6.674;2023-11-18T07:53:15;11.40;58.90
33105;DHT22;19476;51.448;6.674;2023-11-18T07:55:44;11.40;59.00
33105;DHT22;19476;51.448;6.674;2023-11-18T07:58:10;11.40;59.00
33105;DHT22;19476;51.448;6.674;2023-11-18T08:00:37;11.40;59.00
33105;DHT22;19476;51.448;6.674;2023-11-18T08:03:05;11.30;59.10
33105;DHT22;19476;51.448;6.674;2023-11-18T08:05:34;11.30;59.20
33105;DHT22;19476;51.448;6.674;2023-11-18T08:08:00;11.40;59.10
33105;DHT22;19476;51.448;6.674;2023-11-18T08:10:26;11.30;59.10
33105;DHT22;19476;51.448;6.674;2023-11-18T08:12:52;11.40;59.20
33105;DHT22;19476;51.448;6.674;2023-11-18T08:15:20;11.40;59.20
33105;DHT22;19476;51.448;6.674;2023-11-18T08:17:45;11.40;59.30
33105;DHT22;19476;51.448;6.674;2023-11-18T08:20:11;11.40;59.30
33105;DHT22;19476;51.448;6.674;2023-11-18T08:22:41;11.40;59.40
33105;DHT22;19476;51.448;6.674;2023-11-18T08:25:12;11.40;59.30
33105;DHT22;19476;51.448;6.674;2023-11-18T08:27:40;11.50;59.50
33105;DHT22;19476;51.448;6.674;2023-11-18T08:30:07;11.50;59.40
33105;DHT22;19476;51.448;6.674;2023-11-18T08:32:40;11.50;59.40
33105;DHT22;19476;51.448;6.674;2023-11-18T08:35:09;11.50;59.50
33105;DHT22;19476;51.448;6.674;2023-11-18T08:37:36;11.50;59.30
33105;DHT22;19476;51.448;6.674;2023-11-18T08:40:03;11.80;59.60
33105;DHT22;19476;51.448;6.674;2023-11-18T08:42:32;11.50;59.40
33105;DHT22;19476;51.448;6.674;2023-11-18T08:44:59;11.60;59.50
33105;DHT22;19476;51.448;6.674;2023-11-18T08:47:26;11.60;59.50
33105;DHT22;19476;51.448;6.674;2023-11-18T08:49:52;11.70;59.50
33105;DHT22;19476;51.448;6.674;2023-11-18T08:52:18;11.70;59.40
33105;DHT22;19476;51.448;6.674;2023-11-18T08:54:44;11.70;59.40
33105;DHT22;19476;51.448;6.674;2023-11-18T08:57:29;11.70;59.50
33105;DHT22;19476;51.448;6.674;2023-11-18T09:00:14;11.80;59.40
33105;DHT22;19476;51.448;6.674;2023-11-18T09:03:01;11.80;59.40
33105;DHT22;19476;51.448;6.674;2023-11-18T09:05:27;11.80;59.30
33105;DHT22;19476;51.448;6.674;2023-11-18T09:07:57;11.80;59.20
33105;DHT22;19476;51.448;6.674;2023-11-18T09:10:23;11.90;59.30
33105;DHT22;19476;51.448;6.674;2023-11-18T09:12:49;11.90;59.20
33105;DHT22;19476;51.448;6.674;2023-11-18T09:15:15;11.90;59.20
33105;DHT22;19476;51.448;6.674;2023-11-18T09:17:48;11.90;59.20
33105;DHT22;19476;51.448;6.674;2023-11-18T09:20:14;12.00;59.30
33105;DHT22;19476;51.448;6.674;2023-11-18T09:22:46;12.00;59.20
33105;DHT22;19476;51.448;6.674;2023-11-18T09:25:12;12.00;59.10
33105;DHT22;19476;51.448;6.674;2023-11-18T09:27:38;12.00;59.10
33105;DHT22;19476;51.448;6.674;2023-11-18T09:30:05;12.00;59.10
33105;DHT22;19476;51.448;6.674;2023-11-18T09:32:40;12.00;59.20
33105;DHT22;19476;51.448;6.674;2023-11-18T09:35:08;12.00;59.10
33105;DHT22;19476;51.448;6.674;2023-11-18T09:37:35;12.00;59.20
33105;DHT22;19476;51.448;6.674;2023-11-18T09:40:02;12.00;59.10
33105;DHT22;19476;51.448;6.674;2023-11-18T09:42:40;12.20;59.30
33105;DHT22;19476;51.448;6.674;2023-11-18T09:45:09;12.00;59.30
33105;DHT22;19476;51.448;6.674;2023-11-18T09:47:43;12.00;59.20
33105;DHT22;19476;51.448;6.674;2023-11-18T09:50:14;12.00;59.40
33105;DHT22;19476;51.448;6.674;2023-11-18T09:52:50;12.00;59.40
33105;DHT22;19476;51.448;6.674;2023-11-18T09:55:26;12.00;59.60
33105;DHT22;19476;51.448;6.674;2023-11-18T09:58:03;12.00;59.60
33105;DHT22;19476;51.448;6.674;2023-11-18T10:00:31;12.00;59.60
33105;DHT22;19476;51.448;6.674;2023-11-18T10:03:00;12.00;59.50
33105;DHT22;19476;51.448;6.674;2023-11-18T10:05:26;12.10;59.50
33105;DHT22;19476;51.448;6.674;2023-11-18T10:07:53;12.10;59.50
33105;DHT22;19476;51.448;6.674;2023-11-18T10:10:20;12.10;59.50
33105;DHT22;19476;51.448;6.674;2023-11-18T10:12:51;12.10;59.60
33105;DHT22;19476;51.448;6.674;2023-11-18T10:15:29;12.20;59.60
33105;DHT22;19476;51.448;6.674;2023-11-18T10:17:57;12.20;59.60
33105;DHT22;19476;51.448;6.674;2023-11-18T10:20:46;12.20;59.60
33105;DHT22;19476;51.448;6.674;2023-11-18T10:23:14;12.20;59.80
33105;DHT22;19476;51.448;6.674;2023-11-18T10:25:49;12.60;59.90
33105;DHT22;19476;51.448;6.674;2023-11-18T10:28:30;12.20;59.70
33105;DHT22;19476;51.448;6.674;2023-11-18T10:31:01;12.30;60.00
33105;DHT22;19476;51.448;6.674;2023-11-18T10:33:37;12.20;59.70
33105;DHT22;19476;51.448;6.674;2023-11-18T10:36:05;12.30;60.00
33105;DHT22;19476;51.448;6.674;2023-11-18T10:38:39;12.30;59.80
33105;DHT22;19476;51.448;6.674;2023-11-18T10:41:13;12.30;59.70
33105;DHT22;19476;51.448;6.674;2023-11-18T10:43:38;12.30;59.60
33105;DHT22;19476;51.448;6.674;2023-11-18T10:48:42;12.40;59.60
33105;DHT22;19476;51.448;6.674;2023-11-18T10:51:12;12.40;59.80
33105;DHT22;19476;51.448;6.674;2023-11-18T10:53:41;12.40;59.80
33105;DHT22;19476;51.448;6.674;2023-11-18T10:56:24;12.40;59.80
33105;DHT22;19476;51.448;6.674;2023-11-18T10:58:56;12.40;59.70
33105;DHT22;19476;51.448;6.674;2023-11-18T11:01:35;12.40;59.70
33105;DHT22;19476;51.448;6.674;2023-11-18T11:04:11;12.40;59.80
33105;DHT22;19476;51.448;6.674;2023-11-18T11:06:57;12.40;59.60
33105;DHT22;19476;51.448;6.674;2023-11-18T11:09:25;12.50;59.80
33105;DHT22;19476;51.448;6.674;2023-11-18T11:11:59;12.50;59.60
33105;DHT22;19476;51.448;6.674;2023-11-18T11:14:37;12.50;59.90
33105;DHT22;19476;51.448;6.674;2023-11-18T11:17:13;12.50;60.00
33105;DHT22;19476;51.448;6.674;2023-11-18T11:20:06;12.50;60.60
33105;DHT22;19476;51.448;6.674;2023-11-18T11:28:22;12.60;60.40
33105;DHT22;19476;51.448;6.674;2023-11-18T11:33:33;12.60;60.40
33105;DHT22;19476;51.448;6.674;2023-11-18T11:36:11;12.60;60.70
33105;DHT22;19476;51.448;6.674;2023-11-18T11:38:37;12.60;60.50
33105;DHT22;19476;51.448;6.674;2023-11-18T11:41:08;12.60;60.50
33105;DHT22;19476;51.448;6.674;2023-11-18T11:43:35;12.60;60.70
33105;DHT22;19476;51.448;6.674;2023-11-18T11:46:04;12.60;60.60
33105;DHT22;19476;51.448;6.674;2023-11-18T11:48:37;12.60;61.40
33105;DHT22;19476;51.448;6.674;2023-11-18T11:54:06;12.60;61.30
33105;DHT22;19476;51.448;6.674;2023-11-18T11:56:49;12.60;61.70
33105;DHT22;19476;51.448;6.674;2023-11-18T11:59:34;12.60;61.50
33105;DHT22;19476;51.448;6.674;2023-11-18T12:02:02;12.70;61.60
33105;DHT22;19476;51.448;6.674;2023-11-18T12:04:33;12.60;61.20
33105;DHT22;19476;51.448;6.674;2023-11-18T12:07:00;12.60;61.40
33105;DHT22;19476;51.448;6.674;2023-11-18T12:09:31;12.60;61.50
33105;DHT22;19476;51.448;6.674;2023-11-18T12:12:04;12.60;61.80
33105;DHT22;19476;51.448;6.674;2023-11-18T12:14:52;12.70;61.80
33105;DHT22;19476;51.448;6.674;2023-11-18T12:17:18;12.70;62.30
33105;DHT22;19476;51.448;6.674;2023-11-18T12:19:50;12.70;61.80
33105;DHT22;19476;51.448;6.674;2023-11-18T12:22:22;12.70;61.90
33105;DHT22;19476;51.448;6.674;2023-11-18T12:27:54;12.80;61.70
33105;DHT22;19476;51.448;6.674;2023-11-18T12:33:05;12.80;61.80
33105;DHT22;19476;51.448;6.674;2023-11-18T12:41:36;12.80;62.50
33105;DHT22;19476;51.448;6.674;2023-11-18T12:46:52;12.80;62.50
33105;DHT22;19476;51.448;6.674;2023-11-18T12:49:22;12.80;62.30
33105;DHT22;19476;51.448;6.674;2023-11-18T12:51:51;12.80;62.30
33105;DHT22;19476;51.448;6.674;2023-11-18T12:54:21;12.80;63.10
33105;DHT22;19476;51.448;6.674;2023-11-18T12:56:47;12.70;62.40
33105;DHT22;19476;51.448;6.674;2023-11-18T12:59:19;12.70;62.40
33105;DHT22;19476;51.448;6.674;2023-11-18T13:01:53;12.70;62.60
33105;DHT22;19476;51.448;6.674;2023-11-18T13:04:23;12.70;62.90
33105;DHT22;19476;51.448;6.674;2023-11-18T13:06:53;12.70;62.70
33105;DHT22;19476;51.448;6.674;2023-11-18T13:09:22;12.70;62.80
33105;DHT22;19476;51.448;6.674;2023-11-18T13:12:02;12.70;62.90
33105;DHT22;19476;51.448;6.674;2023-11-18T13:14:33;12.70;63.10
33105;DHT22;19476;51.448;6.674;2023-11-18T13:17:03;12.70;63.00
33105;DHT22;19476;51.448;6.674;2023-11-18T13:19:32;12.70;63.10
33105;DHT22;19476;51.448;6.674;2023-11-18T13:22:05;12.70;63.00
33105;DHT22;19476;51.448;6.674;2023-11-18T13:24:38;12.70;63.20
33105;DHT22;19476;51.448;6.674;2023-11-18T13:27:10;12.70;63.20
33105;DHT22;19476;51.448;6.674;2023-11-18T13:29:38;12.70;63.10
33105;DHT22;19476;51.448;6.674;2023-11-18T13:32:10;12.70;63.10
33105;DHT22;19476;51.448;6.674;2023-11-18T13:34:36;12.70;63.20
33105;DHT22;19476;51.448;6.674;2023-11-18T13:37:06;12.70;63.30
33105;DHT22;19476;51.448;6.674;2023-11-18T13:39:33;12.60;63.40
33105;DHT22;19476;51.448;6.674;2023-11-18T13:44:46;12.60;63.60
33105;DHT22;19476;51.448;6.674;2023-11-18T13:47:16;12.60;63.50
33105;DHT22;19476;51.448;6.674;2023-11-18T13:49:42;12.60;63.60
33105;DHT22;19476;51.448;6.674;2023-11-18T13:52:09;12.60;63.60
33105;DHT22;19476;51.448;6.674;2023-11-18T13:54:38;12.60;63.70
33105;DHT22;19476;51.448;6.674;2023-11-18T13:57:04;12.60;63.80
33105;DHT22;19476;51.448;6.674;2023-11-18T13:59:31;12.60;63.90
33105;DHT22;19476;51.448;6.674;2023-11-18T14:01:58;12.50;63.90
33105;DHT22;19476;51.448;6.674;2023-11-18T14:04:30;12.50;63.90
33105;DHT22;19476;51.448;6.674;2023-11-18T14:07:00;12.50;64.50
33105;DHT22;19476;51.448;6.674;2023-11-18T14:09:56;12.50;64.00
33105;DHT22;19476;51.448;6.674;2023-11-18T14:12:22;12.50;64.40
33105;DHT22;19476;51.448;6.674;2023-11-18T14:14:47;12.50;64.10
33105;DHT22;19476;51.448;6.674;2023-11-18T14:17:15;12.50;64.10
33105;DHT22;19476;51.448;6.674;2023-11-18T14:19:42;12.50;64.20
33105;DHT22;19476;51.448;6.674;2023-11-18T14:22:08;12.50;64.20
33105;DHT22;19476;51.448;6.674;2023-11-18T14:24:35;12.50;64.20
33105;DHT22;19476;51.448;6.674;2023-11-18T14:27:01;12.50;64.20
33105;DHT22;19476;51.448;6.674;2023-11-18T14:29:27;12.50;64.20
33105;DHT22;19476;51.448;6.674;2023-11-18T14:31:55;12.50;64.20
33105;DHT22;19476;51.448;6.674;2023-11-18T14:34:21;12.50;64.20
33105;DHT22;19476;51.448;6.674;2023-11-18T14:36:47;12.50;64.20
33105;DHT22;19476;51.448;6.674;2023-11-18T14:39:14;12.50;64.20
33105;DHT22;19476;51.448;6.674;2023-11-18T14:41:44;12.60;64.30
33105;DHT22;19476;51.448;6.674;2023-11-18T14:44:11;12.60;64.40
33105;DHT22;19476;51.448;6.674;2023-11-18T14:46:37;12.60;64.40
33105;DHT22;19476;51.448;6.674;2023-11-18T14:49:07;12.60;64.50
33105;DHT22;19476;51.448;6.674;2023-11-18T14:51:33;12.50;64.70
33105;DHT22;19476;51.448;6.674;2023-11-18T14:53:58;12.50;64.60
33105;DHT22;19476;51.448;6.674;2023-11-18T14:56:24;12.50;64.80
33105;DHT22;19476;51.448;6.674;2023-11-18T14:58:50;12.50;64.90
33105;DHT22;19476;51.448;6.674;2023-11-18T15:01:19;12.30;65.00
33105;DHT22;19476;51.448;6.674;2023-11-18T15:03:51;12.50;65.20
33105;DHT22;19476;51.448;6.674;2023-11-18T15:06:27;12.40;65.40
33105;DHT22;19476;51.448;6.674;2023-11-18T15:08:52;12.40;65.60
33105;DHT22;19476;51.448;6.674;2023-11-18T15:11:22;12.40;65.30
33105;DHT22;19476;51.448;6.674;2023-11-18T15:13:52;12.40;65.60
33105;DHT22;19476;51.448;6.674;2023-11-18T15:16:18;12.40;65.50
33105;DHT22;19476;51.448;6.674;2023-11-18T15:18:44;12.40;65.40
33105;DHT22;19476;51.448;6.674;2023-11-18T15:21:13;12.40;65.50
33105;DHT22;19476;51.448;6.674;2023-11-18T15:23:41;12.40;65.50
33105;DHT22;19476;51.448;6.674;2023-11-18T15:26:07;12.30;65.40
33105;DHT22;19476;51.448;6.674;2023-11-18T15:28:34;12.40;65.60
33105;DHT22;19476;51.448;6.674;2023-11-18T15:31:00;12.40;65.70
33105;DHT22;19476;51.448;6.674;2023-11-18T15:33:28;12.30;65.70
33105;DHT22;19476;51.448;6.674;2023-11-18T15:35:53;12.30;65.80
33105;DHT22;19476;51.448;6.674;2023-11-18T15:38:20;12.30;66.00
33105;DHT22;19476;51.448;6.674;2023-11-18T15:40:48;12.30;66.00
33105;DHT22;19476;51.448;6.674;2023-11-18T15:43:18;12.30;66.20
33105;DHT22;19476;51.448;6.674;2023-11-18T15:45:44;12.30;66.20
33105;DHT22;19476;51.448;6.674;2023-11-18T15:48:10;12.30;66.40
33105;DHT22;19476;51.448;6.674;2023-11-18T15:50:36;12.30;66.30
33105;DHT22;19476;51.448;6.674;2023-11-18T15:53:05;12.30;66.40
33105;DHT22;19476;51.448;6.674;2023-11-18T15:55:32;12.20;66.40
33105;DHT22;19476;51.448;6.674;2023-11-18T15:57:58;12.30;66.40
33105;DHT22;19476;51.448;6.674;2023-11-18T16:00:27;12.30;66.60
33105;DHT22;19476;51.448;6.674;2023-11-18T16:02:55;12.30;66.70
33105;DHT22;19476;51.448;6.674;2023-11-18T16:05:23;12.30;66.70
33105;DHT22;19476;51.448;6.674;2023-11-18T16:07:52;12.30;66.80
33105;DHT22;19476;51.448;6.674;2023-11-18T16:10:20;12.30;66.90